createdAt,value
2023-05-22T00:00:49.347Z,17.31
2023-05-22T00:01:49.505Z,17.32
2023-05-22T00:02:49.477Z,17.33
2023-05-22T00:03:49.303Z,17.29
2023-05-22T00:04:49.359Z,17.21
2023-05-22T00:05:49.269Z,17.17
2023-05-22T00:06:49.496Z,17.14
2023-05-22T00:07:49.273Z,17.11
2023-05-22T00:08:49.238Z,17.10
2023-05-22T00:09:49.241Z,17.09
2023-05-22T00:10:49.287Z,17.08
2023-05-22T00:11:49.213Z,17.11
2023-05-22T00:12:49.198Z,17.13
2023-05-22T00:13:49.190Z,17.13
2023-05-22T00:14:49.228Z,17.12
2023-05-22T00:15:49.225Z,17.12
2023-05-22T00:16:49.203Z,17.11
2023-05-22T00:17:49.176Z,17.08
2023-05-22T00:18:49.150Z,17.08
2023-05-22T00:19:49.130Z,17.11
2023-05-22T00:20:49.117Z,17.11
2023-05-22T00:21:49.155Z,17.09
2023-05-22T00:22:49.087Z,17.05
2023-05-22T00:23:49.110Z,17.02
2023-05-22T00:24:49.090Z,16.98
2023-05-22T00:25:49.081Z,16.95
2023-05-22T00:26:49.064Z,16.94
2023-05-22T00:27:49.048Z,16.91
2023-05-22T00:28:49.038Z,16.88
2023-05-22T00:29:49.040Z,16.84
2023-05-22T00:30:49.049Z,16.80
2023-05-22T00:31:49.014Z,16.79
2023-05-22T00:32:49.086Z,16.81
2023-05-22T00:33:48.996Z,16.82
2023-05-22T00:34:49.051Z,16.84
2023-05-22T00:35:48.957Z,16.86
2023-05-22T00:36:48.942Z,16.85
2023-05-22T00:37:48.938Z,16.84
2023-05-22T00:38:48.927Z,16.80
2023-05-22T00:39:48.924Z,16.76
2023-05-22T00:40:48.929Z,16.76
2023-05-22T00:41:48.920Z,16.77
2023-05-22T00:42:48.877Z,16.78
2023-05-22T00:43:48.881Z,16.79
2023-05-22T00:44:48.879Z,16.81
2023-05-22T00:45:48.864Z,16.81
2023-05-22T00:46:48.908Z,16.79
2023-05-22T00:47:48.863Z,16.76
2023-05-22T00:48:48.820Z,16.73
2023-05-22T00:49:48.808Z,16.71
2023-05-22T00:50:48.805Z,16.67
2023-05-22T00:51:48.794Z,16.65
2023-05-22T00:52:48.790Z,16.66
2023-05-22T00:53:48.788Z,16.64
2023-05-22T00:54:48.764Z,16.60
2023-05-22T00:55:48.812Z,16.58
2023-05-22T00:56:48.775Z,16.58
2023-05-22T00:57:48.786Z,16.58
2023-05-22T00:58:48.716Z,16.58
2023-05-22T00:59:48.702Z,16.56
2023-05-22T01:00:48.710Z,16.55
2023-05-22T01:01:48.735Z,16.56
2023-05-22T01:02:48.742Z,16.59
2023-05-22T01:03:48.846Z,16.63
2023-05-22T01:04:48.644Z,16.66
2023-05-22T01:05:48.642Z,16.64
2023-05-22T01:06:48.640Z,16.62
2023-05-22T01:07:48.628Z,16.62
2023-05-22T01:08:48.641Z,16.64
2023-05-22T01:09:48.605Z,16.67
2023-05-22T01:10:48.585Z,16.69
2023-05-22T01:11:48.580Z,16.69
2023-05-22T01:12:48.578Z,16.66
2023-05-22T01:13:48.581Z,16.64
2023-05-22T01:14:48.576Z,16.62
2023-05-22T01:15:48.566Z,16.56
2023-05-22T01:16:48.630Z,16.52
2023-05-22T01:17:48.550Z,16.50
2023-05-22T01:18:48.560Z,16.46
2023-05-22T01:19:48.485Z,16.43
2023-05-22T01:20:48.913Z,16.40
2023-05-22T01:21:48.540Z,16.41
2023-05-22T01:22:48.509Z,16.44
2023-05-22T01:23:48.461Z,16.43
2023-05-22T01:24:48.437Z,16.41
2023-05-22T01:25:48.469Z,16.41
2023-05-22T01:26:48.428Z,16.41
2023-05-22T01:27:48.421Z,16.37
2023-05-22T01:28:48.393Z,16.32
2023-05-22T01:29:48.379Z,16.28
2023-05-22T01:30:48.407Z,16.27
2023-05-22T01:31:48.387Z,16.27
2023-05-22T01:32:48.454Z,16.27
2023-05-22T01:33:48.472Z,16.27
2023-05-22T01:34:48.333Z,16.29
2023-05-22T01:35:48.343Z,16.34
2023-05-22T01:36:48.324Z,16.37
2023-05-22T01:37:48.300Z,16.34
2023-05-22T01:38:48.294Z,16.29
2023-05-22T01:39:48.292Z,16.25
2023-05-22T01:40:48.282Z,16.20
2023-05-22T01:41:48.281Z,16.15
2023-05-22T01:42:48.238Z,16.10
2023-05-22T01:43:48.254Z,16.06
2023-05-22T01:44:48.233Z,16.05
2023-05-22T01:45:48.314Z,16.03
2023-05-22T01:46:48.234Z,16.02
2023-05-22T01:47:48.247Z,16.02
2023-05-22T01:48:48.196Z,16.02
2023-05-22T01:49:48.173Z,16.01
2023-05-22T01:50:48.168Z,16.01
2023-05-22T01:51:48.153Z,16.01
2023-05-22T01:52:48.189Z,16.01
2023-05-22T01:53:48.137Z,16.03
2023-05-22T01:54:48.168Z,16.08
2023-05-22T01:55:48.124Z,16.10
2023-05-22T01:56:48.113Z,16.11
2023-05-22T01:57:48.091Z,16.13
2023-05-22T01:58:48.099Z,16.17
2023-05-22T01:59:48.103Z,16.19
2023-05-22T02:00:48.062Z,16.21
2023-05-22T02:01:48.097Z,16.25
2023-05-22T02:02:48.204Z,16.27
2023-05-22T02:03:48.065Z,16.27
2023-05-22T02:04:48.077Z,16.26
2023-05-22T02:05:48.020Z,16.21
2023-05-22T02:06:48.003Z,16.18
2023-05-22T02:07:47.995Z,16.19
2023-05-22T02:08:47.971Z,16.22
2023-05-22T02:09:47.969Z,16.25
2023-05-22T02:10:47.975Z,16.26
2023-05-22T02:11:47.938Z,16.26
2023-05-22T02:12:47.946Z,16.28
2023-05-22T02:13:47.946Z,16.27
2023-05-22T02:14:47.967Z,16.21
2023-05-22T02:15:48.060Z,16.17
2023-05-22T02:16:47.962Z,16.16
2023-05-22T02:17:47.920Z,16.14
2023-05-22T02:18:47.908Z,16.14
2023-05-22T02:19:47.855Z,16.18
2023-05-22T02:20:47.867Z,16.24
2023-05-22T02:21:47.849Z,16.29
2023-05-22T02:22:47.862Z,16.29
2023-05-22T02:23:47.829Z,16.27
2023-05-22T02:24:47.822Z,16.25
2023-05-22T02:25:47.833Z,16.20
2023-05-22T02:26:47.825Z,16.14
2023-05-22T02:27:47.784Z,16.11
2023-05-22T02:28:47.771Z,16.10
2023-05-22T02:29:47.759Z,16.11
2023-05-22T02:30:47.753Z,16.15
2023-05-22T02:31:47.815Z,16.18
2023-05-22T02:32:47.833Z,16.20
2023-05-22T02:33:47.713Z,16.22
2023-05-22T02:34:47.704Z,16.21
2023-05-22T02:35:47.745Z,16.17
2023-05-22T02:36:47.682Z,16.17
2023-05-22T02:37:47.692Z,16.20
2023-05-22T02:38:47.673Z,16.23
2023-05-22T02:39:47.680Z,16.25
2023-05-22T02:40:47.701Z,16.28
2023-05-22T02:41:47.634Z,16.30
2023-05-22T02:42:47.645Z,16.28
2023-05-22T02:43:47.636Z,16.26
2023-05-22T02:44:47.647Z,16.27
2023-05-22T02:45:47.609Z,16.28
2023-05-22T02:46:47.685Z,16.28
2023-05-22T02:47:47.668Z,16.27
2023-05-22T02:48:47.578Z,16.27
2023-05-22T02:49:47.552Z,16.30
2023-05-22T02:50:47.574Z,16.31
2023-05-22T02:51:47.562Z,16.30
2023-05-22T02:52:47.560Z,16.27
2023-05-22T02:53:47.516Z,16.27
2023-05-22T02:54:47.481Z,16.31
2023-05-22T02:55:47.510Z,16.35
2023-05-22T02:56:47.476Z,16.38
2023-05-22T02:57:47.470Z,16.36
2023-05-22T02:58:47.498Z,16.30
2023-05-22T02:59:47.474Z,16.27
2023-05-22T03:00:47.421Z,16.26
2023-05-22T03:01:47.428Z,16.27
2023-05-22T03:02:47.489Z,16.27
2023-05-22T03:03:47.519Z,16.27
2023-05-22T03:04:47.381Z,16.22
2023-05-22T03:05:47.406Z,16.16
2023-05-22T03:06:47.365Z,16.11
2023-05-22T03:07:48.847Z,16.09
2023-05-22T03:08:47.367Z,16.09
2023-05-22T03:09:47.355Z,16.13
2023-05-22T03:10:47.322Z,16.17
2023-05-22T03:11:47.366Z,16.20
2023-05-22T03:12:47.302Z,16.21
2023-05-22T03:13:47.285Z,16.20
2023-05-22T03:14:47.281Z,16.20
2023-05-22T03:15:47.276Z,16.19
2023-05-22T03:16:47.335Z,16.15
2023-05-22T03:17:47.328Z,16.08
2023-05-22T03:18:47.305Z,16.01
2023-05-22T03:19:47.229Z,15.94
2023-05-22T03:20:47.305Z,15.89
2023-05-22T03:21:47.200Z,15.89
2023-05-22T03:22:47.255Z,15.94
2023-05-22T03:23:47.208Z,16.01
2023-05-22T03:24:47.200Z,16.07
2023-05-22T03:25:47.172Z,16.13
2023-05-22T03:26:47.201Z,16.18
2023-05-22T03:27:47.155Z,16.19
2023-05-22T03:28:47.144Z,16.20
2023-05-22T03:29:47.109Z,16.20
2023-05-22T03:30:47.119Z,16.18
2023-05-22T03:31:47.197Z,16.11
2023-05-22T03:32:47.145Z,16.03
2023-05-22T03:33:47.210Z,15.94
2023-05-22T03:34:47.087Z,15.86
2023-05-22T03:35:47.080Z,15.81
2023-05-22T03:36:47.068Z,15.81
2023-05-22T03:37:47.104Z,15.78
2023-05-22T03:38:47.036Z,15.75
2023-05-22T03:39:47.022Z,15.75
2023-05-22T03:40:47.018Z,15.73
2023-05-22T03:41:47.004Z,15.72
2023-05-22T03:42:46.991Z,15.71
2023-05-22T03:43:47.003Z,15.68
2023-05-22T03:44:47.015Z,15.62
2023-05-22T03:45:47.019Z,15.61
2023-05-22T03:46:46.977Z,15.66
2023-05-22T03:47:46.991Z,15.67
2023-05-22T03:48:46.950Z,15.64
2023-05-22T03:49:46.943Z,15.60
2023-05-22T03:50:46.929Z,15.61
2023-05-22T03:51:46.920Z,15.67
2023-05-22T03:52:46.904Z,15.72
2023-05-22T03:53:46.900Z,15.74
2023-05-22T03:54:46.875Z,15.72
2023-05-22T03:55:46.862Z,15.72
2023-05-22T03:56:46.840Z,15.76
2023-05-22T03:57:46.852Z,15.79
2023-05-22T03:58:46.817Z,15.78
2023-05-22T03:59:46.825Z,15.79
2023-05-22T04:00:46.871Z,15.82
2023-05-22T04:01:46.818Z,15.83
2023-05-22T04:02:46.876Z,15.83
2023-05-22T04:03:46.809Z,15.81
2023-05-22T04:04:46.805Z,15.79
2023-05-22T04:05:46.767Z,15.77
2023-05-22T04:06:46.768Z,15.77
2023-05-22T04:07:46.737Z,15.80
2023-05-22T04:08:46.727Z,15.78
2023-05-22T04:09:46.765Z,15.73
2023-05-22T04:10:46.823Z,15.67
2023-05-22T04:11:46.709Z,15.63
2023-05-22T04:12:46.684Z,15.60
2023-05-22T04:13:46.683Z,15.59
2023-05-22T04:14:46.690Z,15.58
2023-05-22T04:15:46.900Z,15.56
2023-05-22T04:16:48.510Z,15.54
2023-05-22T04:17:46.700Z,15.53
2023-05-22T04:18:46.637Z,15.53
2023-05-22T04:19:46.618Z,15.54
2023-05-22T04:20:46.618Z,15.56
2023-05-22T04:21:46.604Z,15.59
2023-05-22T04:22:46.578Z,15.62
2023-05-22T04:23:46.564Z,15.67
2023-05-22T04:24:46.575Z,15.73
2023-05-22T04:25:46.559Z,15.79
2023-05-22T04:26:46.548Z,15.84
2023-05-22T04:27:46.554Z,15.89
2023-05-22T04:28:46.550Z,15.92
2023-05-22T04:29:46.548Z,15.93
2023-05-22T04:30:46.563Z,15.93
2023-05-22T04:31:46.474Z,15.96
2023-05-22T04:32:46.548Z,15.98
2023-05-22T04:33:46.479Z,16.00
2023-05-22T04:34:46.451Z,16.03
2023-05-22T04:35:46.482Z,16.05
2023-05-22T04:36:46.455Z,16.06
2023-05-22T04:37:46.546Z,16.07
2023-05-22T04:38:46.405Z,16.08
2023-05-22T04:39:46.408Z,16.08
2023-05-22T04:40:46.442Z,16.07
2023-05-22T04:41:46.376Z,16.06
2023-05-22T04:42:46.401Z,16.05
2023-05-22T04:43:46.374Z,16.04
2023-05-22T04:44:46.377Z,16.03
2023-05-22T04:45:46.356Z,16.01
2023-05-22T04:46:46.366Z,15.96
2023-05-22T04:47:46.365Z,15.90
2023-05-22T04:48:46.324Z,15.84
2023-05-22T04:49:46.296Z,15.78
2023-05-22T04:50:46.329Z,15.74
2023-05-22T04:51:46.296Z,15.70
2023-05-22T04:52:46.275Z,15.67
2023-05-22T04:53:46.409Z,15.64
2023-05-22T04:54:46.280Z,15.63
2023-05-22T04:55:46.261Z,15.63
2023-05-22T04:56:46.285Z,15.66
2023-05-22T04:57:46.217Z,15.70
2023-05-22T04:58:46.234Z,15.71
2023-05-22T04:59:46.216Z,15.69
2023-05-22T05:00:46.255Z,15.66
2023-05-22T05:01:46.214Z,15.64
2023-05-22T05:02:46.324Z,15.62
2023-05-22T05:03:46.181Z,15.61
2023-05-22T05:04:46.149Z,15.62
2023-05-22T05:05:46.172Z,15.63
2023-05-22T05:06:46.117Z,15.65
2023-05-22T05:07:47.733Z,15.67
2023-05-22T05:08:46.131Z,15.70
2023-05-22T05:09:46.116Z,15.72
2023-05-22T05:10:46.093Z,15.73
2023-05-22T05:11:46.070Z,15.74
2023-05-22T05:12:46.052Z,15.75
2023-05-22T05:13:46.061Z,15.76
2023-05-22T05:14:46.060Z,15.77
2023-05-22T05:15:46.041Z,15.81
2023-05-22T05:16:46.066Z,15.86
2023-05-22T05:17:46.033Z,15.91
2023-05-22T05:18:46.092Z,15.94
2023-05-22T05:19:46.224Z,15.97
2023-05-22T05:20:46.015Z,15.98
2023-05-22T05:21:45.973Z,15.97
2023-05-22T05:22:45.969Z,15.98
2023-05-22T05:23:45.960Z,16.00
2023-05-22T05:24:45.977Z,16.02
2023-05-22T05:25:45.942Z,16.07
2023-05-22T05:26:45.954Z,16.10
2023-05-22T05:27:45.913Z,16.13
2023-05-22T05:28:45.892Z,16.16
2023-05-22T05:29:45.872Z,16.19
2023-05-22T05:30:45.928Z,16.22
2023-05-22T05:31:45.879Z,16.28
2023-05-22T05:32:45.929Z,16.31
2023-05-22T05:33:45.847Z,16.31
2023-05-22T05:34:45.834Z,16.30
2023-05-22T05:35:45.827Z,16.31
2023-05-22T05:36:45.828Z,16.34
2023-05-22T05:37:45.811Z,16.36
2023-05-22T05:38:45.800Z,16.36
2023-05-22T05:39:45.789Z,16.38
2023-05-22T05:40:45.850Z,16.41
2023-05-22T05:41:45.795Z,16.44
2023-05-22T05:42:45.782Z,16.49
2023-05-22T05:43:45.749Z,16.57
2023-05-22T05:44:45.757Z,16.64
2023-05-22T05:45:45.770Z,16.66
2023-05-22T05:46:45.710Z,16.67
2023-05-22T05:47:45.741Z,16.68
2023-05-22T05:48:45.730Z,16.71
2023-05-22T05:49:45.711Z,16.76
2023-05-22T05:50:45.687Z,16.82
2023-05-22T05:51:45.715Z,16.87
2023-05-22T05:52:46.100Z,16.91
2023-05-22T05:53:45.951Z,16.93
2023-05-22T05:54:46.133Z,16.97
2023-05-22T05:55:45.750Z,17.00
2023-05-22T05:56:45.637Z,17.03
2023-05-22T05:57:45.803Z,17.06
2023-05-22T05:58:45.613Z,17.09
2023-05-22T05:59:46.281Z,17.10
2023-05-22T06:00:45.584Z,17.09
2023-05-22T06:01:45.649Z,17.09
2023-05-22T06:02:45.779Z,17.09
2023-05-22T06:03:45.711Z,17.10
2023-05-22T06:04:45.530Z,17.12
2023-05-22T06:05:45.666Z,17.15
2023-05-22T06:06:45.510Z,17.17
2023-05-22T06:07:45.517Z,17.19
2023-05-22T06:08:45.522Z,17.20
2023-05-22T06:09:45.492Z,17.22
2023-05-22T06:10:45.471Z,17.27
2023-05-22T06:11:45.483Z,17.32
2023-05-22T06:12:45.484Z,17.34
2023-05-22T06:13:45.459Z,17.34
2023-05-22T06:14:45.466Z,17.33
2023-05-22T06:15:45.483Z,17.34
2023-05-22T06:16:45.468Z,17.37
2023-05-22T06:17:45.492Z,17.41
2023-05-22T06:18:45.445Z,17.42
2023-05-22T06:19:45.401Z,17.39
2023-05-22T06:20:45.383Z,17.37
2023-05-22T06:21:45.375Z,17.39
2023-05-22T06:22:45.351Z,17.42
2023-05-22T06:23:45.337Z,17.48
2023-05-22T06:24:45.359Z,17.56
2023-05-22T06:25:45.337Z,17.63
2023-05-22T06:26:45.343Z,17.70
2023-05-22T06:27:45.346Z,17.77
2023-05-22T06:28:45.308Z,17.80
2023-05-22T06:29:45.264Z,17.78
2023-05-22T06:30:45.509Z,17.77
2023-05-22T06:31:45.338Z,17.80
2023-05-22T06:32:45.379Z,17.80
2023-05-22T06:33:45.429Z,17.83
2023-05-22T06:34:45.223Z,17.90
2023-05-22T06:35:45.244Z,17.98
2023-05-22T06:36:45.206Z,18.05
2023-05-22T06:37:45.186Z,18.10
2023-05-22T06:38:45.185Z,18.16
2023-05-22T06:39:45.205Z,18.20
2023-05-22T06:40:45.157Z,18.21
2023-05-22T06:41:45.179Z,18.20
2023-05-22T06:42:45.158Z,18.22
2023-05-22T06:43:45.129Z,18.22
2023-05-22T06:44:45.112Z,18.22
2023-05-22T06:45:45.189Z,18.24
2023-05-22T06:46:45.086Z,18.25
2023-05-22T06:47:45.175Z,18.26
2023-05-22T06:48:45.097Z,18.28
2023-05-22T06:49:45.074Z,18.33
2023-05-22T06:50:45.067Z,18.37
2023-05-22T06:51:45.059Z,18.37
2023-05-22T06:52:45.024Z,18.32
2023-05-22T06:53:45.069Z,18.27
2023-05-22T06:54:45.036Z,18.27
2023-05-22T06:55:45.073Z,18.30
2023-05-22T06:56:45.017Z,18.33
2023-05-22T06:57:45.062Z,18.36
2023-05-22T06:58:44.978Z,18.42
2023-05-22T06:59:45.022Z,18.49
2023-05-22T07:00:44.938Z,18.57
2023-05-22T07:01:45.103Z,18.66
2023-05-22T07:02:44.964Z,18.75
2023-05-22T07:03:44.908Z,18.83
2023-05-22T07:04:44.892Z,18.93
2023-05-22T07:05:44.926Z,19.02
2023-05-22T07:06:45.667Z,19.09
2023-05-22T07:07:44.874Z,19.17
2023-05-22T07:08:44.849Z,19.21
2023-05-22T07:09:44.845Z,19.20
2023-05-22T07:10:44.832Z,19.20
2023-05-22T07:11:44.838Z,19.19
2023-05-22T07:12:44.813Z,19.16
2023-05-22T07:13:44.808Z,19.15
2023-05-22T07:14:44.786Z,19.19
2023-05-22T07:15:46.488Z,19.24
2023-05-22T07:16:44.865Z,19.26
2023-05-22T07:17:44.827Z,19.27
2023-05-22T07:18:44.760Z,19.29
2023-05-22T07:19:44.753Z,19.31
2023-05-22T07:20:44.726Z,19.33
2023-05-22T07:21:44.779Z,19.36
2023-05-22T07:22:44.739Z,19.40
2023-05-22T07:23:44.692Z,19.47
2023-05-22T07:24:44.785Z,19.53
2023-05-22T07:25:44.683Z,19.52
2023-05-22T07:26:44.697Z,19.51
2023-05-22T07:27:44.731Z,19.49
2023-05-22T07:28:44.658Z,19.47
2023-05-22T07:29:44.631Z,19.46
2023-05-22T07:30:44.629Z,19.44
2023-05-22T07:31:44.727Z,19.48
2023-05-22T07:32:44.682Z,19.56
2023-05-22T07:33:44.652Z,19.59
2023-05-22T07:34:44.623Z,19.61
2023-05-22T07:35:44.577Z,19.66
2023-05-22T07:36:44.556Z,19.73
2023-05-22T07:37:44.568Z,19.77
2023-05-22T07:38:44.537Z,19.82
2023-05-22T07:39:44.561Z,19.90
2023-05-22T07:40:44.530Z,19.96
2023-05-22T07:41:44.561Z,19.97
2023-05-22T07:42:44.531Z,20.01
2023-05-22T07:43:44.518Z,20.12
2023-05-22T07:44:44.504Z,20.25
2023-05-22T07:45:44.553Z,20.32
2023-05-22T07:46:44.547Z,20.34
2023-05-22T07:47:44.482Z,20.33
2023-05-22T07:48:44.454Z,20.29
2023-05-22T07:49:44.438Z,20.26
2023-05-22T07:50:44.450Z,20.29
2023-05-22T07:51:44.430Z,20.42
2023-05-22T07:52:44.420Z,20.59
2023-05-22T07:53:44.402Z,20.76
2023-05-22T07:54:45.534Z,20.90
2023-05-22T07:55:44.384Z,21.03
2023-05-22T07:56:44.389Z,21.11
2023-05-22T07:57:44.371Z,21.16
2023-05-22T07:58:44.342Z,21.18
2023-05-22T07:59:44.365Z,21.19
2023-05-22T08:00:44.325Z,21.26
2023-05-22T08:01:44.353Z,21.28
2023-05-22T08:02:45.137Z,21.28
2023-05-22T08:03:44.528Z,21.32
2023-05-22T08:04:44.293Z,21.40
2023-05-22T08:05:44.366Z,21.48
2023-05-22T08:06:44.321Z,21.55
2023-05-22T08:07:44.251Z,21.61
2023-05-22T08:08:44.219Z,21.69
2023-05-22T08:09:44.277Z,21.75
2023-05-22T08:11:01.965Z,21.81
2023-05-22T08:11:44.233Z,21.90
2023-05-22T08:12:44.238Z,22.00
2023-05-22T08:13:44.208Z,22.09
2023-05-22T08:14:44.212Z,22.15
2023-05-22T08:15:44.259Z,22.23
2023-05-22T08:16:44.194Z,22.30
2023-05-22T08:17:44.917Z,22.38
2023-05-22T08:18:44.288Z,22.38
2023-05-22T08:19:44.320Z,22.38
2023-05-22T08:20:44.133Z,22.37
2023-05-22T08:21:44.150Z,22.40
2023-05-22T08:22:44.113Z,22.34
2023-05-22T08:23:44.066Z,22.12
2023-05-22T08:24:44.095Z,21.97
2023-05-22T08:25:44.085Z,21.93
2023-05-22T08:26:44.039Z,21.92
2023-05-22T08:27:44.027Z,21.90
2023-05-22T08:28:44.013Z,21.93
2023-05-22T08:29:44.014Z,22.07
2023-05-22T08:30:44.034Z,22.23
2023-05-22T08:31:44.095Z,22.37
2023-05-22T08:32:43.985Z,22.47
2023-05-22T08:33:43.955Z,22.56
2023-05-22T08:34:43.962Z,22.66
2023-05-22T08:35:43.938Z,22.74
2023-05-22T08:36:43.942Z,22.75
2023-05-22T08:37:43.948Z,22.74
2023-05-22T08:38:43.909Z,22.73
2023-05-22T08:39:43.902Z,22.77
2023-05-22T08:40:46.212Z,22.88
2023-05-22T08:41:43.910Z,22.97
2023-05-22T08:42:43.890Z,22.99
2023-05-22T08:43:43.872Z,22.94
2023-05-22T08:44:43.849Z,22.88
2023-05-22T08:45:43.856Z,22.88
2023-05-22T08:46:43.948Z,22.97
2023-05-22T08:47:43.891Z,23.06
2023-05-22T08:48:43.808Z,23.04
2023-05-22T08:49:43.808Z,22.98
2023-05-22T08:50:43.790Z,23.00
2023-05-22T08:51:43.790Z,23.12
2023-05-22T08:52:43.788Z,23.25
2023-05-22T08:53:43.780Z,23.33
2023-05-22T08:54:43.765Z,23.41
2023-05-22T08:55:43.737Z,23.41
2023-05-22T08:56:55.667Z,23.32
2023-05-22T08:57:43.707Z,23.25
2023-05-22T08:58:43.729Z,23.26
2023-05-22T08:59:43.699Z,23.27
2023-05-22T09:00:43.778Z,23.25
2023-05-22T09:01:43.796Z,23.29
2023-05-22T09:02:43.671Z,23.35
2023-05-22T09:03:43.717Z,23.33
2023-05-22T09:04:43.662Z,23.26
2023-05-22T09:05:43.627Z,23.29
2023-05-22T09:06:43.631Z,23.40
2023-05-22T09:07:43.627Z,23.45
2023-05-22T09:08:43.603Z,23.45
2023-05-22T09:09:43.623Z,23.45
2023-05-22T09:10:43.612Z,23.50
2023-05-22T09:11:43.574Z,23.60
2023-05-22T09:12:43.560Z,23.72
2023-05-22T09:13:43.547Z,23.80
2023-05-22T09:14:43.538Z,23.89
2023-05-22T09:15:43.571Z,23.91
2023-05-22T09:16:43.562Z,23.87
2023-05-22T09:17:43.563Z,23.80
2023-05-22T09:18:43.502Z,23.77
2023-05-22T09:19:43.528Z,23.84
2023-05-22T09:20:43.579Z,23.89
2023-05-22T09:21:43.485Z,23.90
2023-05-22T09:22:43.489Z,23.96
2023-05-22T09:23:43.564Z,23.98
2023-05-22T09:24:43.476Z,23.98
2023-05-22T09:25:43.451Z,23.99
2023-05-22T09:26:43.433Z,24.00
2023-05-22T09:27:43.426Z,24.03
2023-05-22T09:28:43.497Z,24.12
2023-05-22T09:29:43.392Z,24.11
2023-05-22T09:30:43.650Z,24.04
2023-05-22T09:31:43.682Z,23.98
2023-05-22T09:32:43.447Z,23.98
2023-05-22T09:33:43.352Z,24.04
2023-05-22T09:34:43.329Z,24.17
2023-05-22T09:35:43.363Z,24.30
2023-05-22T09:36:43.308Z,24.35
2023-05-22T09:37:43.302Z,24.35
2023-05-22T09:38:43.283Z,24.40
2023-05-22T09:39:43.331Z,24.45
2023-05-22T09:40:43.300Z,24.50
2023-05-22T09:41:43.257Z,24.57
2023-05-22T09:42:43.246Z,24.58
2023-05-22T09:43:43.287Z,24.61
2023-05-22T09:44:43.265Z,24.65
2023-05-22T09:45:43.248Z,24.56
2023-05-22T09:46:43.408Z,24.49
2023-05-22T09:47:43.250Z,24.55
2023-05-22T09:48:43.189Z,24.67
2023-05-22T09:49:43.219Z,24.82
2023-05-22T09:50:43.202Z,24.90
2023-05-22T09:51:43.189Z,24.92
2023-05-22T09:52:43.158Z,24.89
2023-05-22T09:53:43.157Z,24.80
2023-05-22T09:54:43.130Z,24.72
2023-05-22T09:55:43.137Z,24.66
2023-05-22T09:56:43.130Z,24.61
2023-05-22T09:57:43.136Z,24.59
2023-05-22T09:58:43.100Z,24.59
2023-05-22T09:59:43.107Z,24.63
2023-05-22T10:00:43.103Z,24.63
2023-05-22T10:01:43.966Z,24.63
2023-05-22T10:02:43.083Z,24.69
2023-05-22T10:03:43.094Z,24.80
2023-05-22T10:04:43.101Z,24.89
2023-05-22T10:05:43.025Z,24.96
2023-05-22T10:06:43.046Z,25.05
2023-05-22T10:07:43.018Z,25.15
2023-05-22T10:08:43.018Z,25.20
2023-05-22T10:09:42.987Z,25.21
2023-05-22T10:10:43.113Z,25.19
2023-05-22T10:11:42.961Z,25.17
2023-05-22T10:12:42.961Z,25.20
2023-05-22T10:13:43.001Z,25.27
2023-05-22T10:14:42.955Z,25.36
2023-05-22T10:15:42.962Z,25.45
2023-05-22T10:16:42.995Z,25.56
2023-05-22T10:17:42.948Z,25.62
2023-05-22T10:18:42.896Z,25.63
2023-05-22T10:19:44.521Z,25.60
2023-05-22T10:20:42.947Z,25.52
2023-05-22T10:21:42.879Z,25.44
2023-05-22T10:22:42.877Z,25.44
2023-05-22T10:23:42.856Z,25.50
2023-05-22T10:24:42.850Z,25.60
2023-05-22T10:25:42.875Z,25.63
2023-05-22T10:26:42.809Z,25.48
2023-05-22T10:27:42.840Z,25.34
2023-05-22T10:28:42.814Z,25.33
2023-05-22T10:29:42.811Z,25.37
2023-05-22T10:30:43.045Z,25.27
2023-05-22T10:31:42.788Z,25.08
2023-05-22T10:32:42.762Z,24.96
2023-05-22T10:33:42.824Z,24.96
2023-05-22T10:34:42.747Z,25.01
2023-05-22T10:35:42.722Z,25.07
2023-05-22T10:36:43.660Z,25.13
2023-05-22T10:37:42.727Z,25.19
2023-05-22T10:38:42.691Z,25.31
2023-05-22T10:39:42.752Z,25.47
2023-05-22T10:40:42.693Z,25.59
2023-05-22T10:41:42.665Z,25.60
2023-05-22T10:42:42.669Z,25.58
2023-05-22T10:43:42.644Z,25.48
2023-05-22T10:44:42.657Z,25.43
2023-05-22T10:45:44.701Z,25.49
2023-05-22T10:46:42.635Z,25.55
2023-05-22T10:47:42.644Z,25.51
2023-05-22T10:48:42.617Z,25.50
2023-05-22T10:49:42.587Z,25.57
2023-05-22T10:50:42.771Z,25.56
2023-05-22T10:51:42.680Z,25.49
2023-05-22T10:52:42.563Z,25.44
2023-05-22T10:53:42.588Z,25.46
2023-05-22T10:54:42.558Z,25.56
2023-05-22T10:55:42.542Z,25.64
2023-05-22T10:56:42.544Z,25.62
2023-05-22T10:57:42.494Z,25.64
2023-05-22T10:58:42.507Z,25.61
2023-05-22T10:59:42.502Z,25.58
2023-05-22T11:00:42.673Z,25.56
2023-05-22T11:01:42.507Z,25.53
2023-05-22T11:02:42.572Z,25.54
2023-05-22T11:03:42.452Z,25.54
2023-05-22T11:04:42.532Z,25.49
2023-05-22T11:05:42.438Z,25.47
2023-05-22T11:06:42.790Z,25.49
2023-05-22T11:07:42.399Z,25.55
2023-05-22T11:08:42.385Z,25.60
2023-05-22T11:09:42.377Z,25.62
2023-05-22T11:10:42.401Z,25.59
2023-05-22T11:11:42.380Z,25.56
2023-05-22T11:12:42.376Z,25.48
2023-05-22T11:13:42.346Z,25.39
2023-05-22T11:14:42.364Z,25.36
2023-05-22T11:15:42.321Z,25.36
2023-05-22T11:16:42.366Z,25.37
2023-05-22T11:17:42.360Z,25.32
2023-05-22T11:18:42.965Z,25.28
2023-05-22T11:19:42.457Z,25.31
2023-05-22T11:20:42.533Z,25.34
2023-05-22T11:21:42.260Z,25.37
2023-05-22T11:22:42.277Z,25.39
2023-05-22T11:23:42.281Z,25.38
2023-05-22T11:24:42.235Z,25.24
2023-05-22T11:25:42.231Z,25.12
2023-05-22T11:26:42.245Z,25.13
2023-05-22T11:27:42.225Z,25.20
2023-05-22T11:28:42.214Z,25.28
2023-05-22T11:29:42.210Z,25.36
2023-05-22T11:30:42.384Z,25.41
2023-05-22T11:31:42.250Z,25.48
2023-05-22T11:32:42.229Z,25.46
2023-05-22T11:33:42.180Z,25.27
2023-05-22T11:34:43.184Z,25.08
2023-05-22T11:35:42.151Z,25.06
2023-05-22T11:36:42.113Z,25.11
2023-05-22T11:37:42.132Z,25.18
2023-05-22T11:38:42.132Z,25.28
2023-05-22T11:39:42.156Z,25.36
2023-05-22T11:40:42.244Z,25.45
2023-05-22T11:41:42.076Z,25.50
2023-05-22T11:42:42.103Z,25.52
2023-05-22T11:43:42.064Z,25.51
2023-05-22T11:44:42.081Z,25.47
2023-05-22T11:45:42.039Z,25.47
2023-05-22T11:46:42.052Z,25.47
2023-05-22T11:47:42.170Z,25.40
2023-05-22T11:48:42.065Z,25.35
2023-05-22T11:49:42.050Z,25.36
2023-05-22T11:50:43.597Z,25.39
2023-05-22T11:51:41.992Z,25.40
2023-05-22T11:52:41.956Z,25.31
2023-05-22T11:53:42.034Z,25.20
2023-05-22T11:54:41.972Z,25.19
2023-05-22T11:55:41.919Z,25.25
2023-05-22T11:56:41.914Z,25.28
2023-05-22T11:57:41.914Z,25.25
2023-05-22T11:58:41.895Z,25.23
2023-05-22T11:59:41.903Z,25.21
2023-05-22T12:00:42.193Z,25.22
2023-05-22T12:01:41.952Z,25.23
2023-05-22T12:02:41.939Z,25.22
2023-05-22T12:03:42.068Z,25.24
2023-05-22T12:04:41.826Z,25.27
2023-05-22T12:05:41.829Z,25.20
2023-05-22T12:06:41.841Z,25.11
2023-05-22T12:07:41.820Z,25.04
2023-05-22T12:08:41.791Z,24.97
2023-05-22T12:09:41.799Z,24.95
2023-05-22T12:10:41.970Z,24.93
2023-05-22T12:11:41.748Z,24.89
2023-05-22T12:12:41.785Z,24.88
2023-05-22T12:13:41.736Z,24.87
2023-05-22T12:14:41.722Z,24.83
2023-05-22T12:15:41.727Z,24.82
2023-05-22T12:16:41.790Z,24.87
2023-05-22T12:17:41.702Z,24.94
2023-05-22T12:18:41.687Z,24.98
2023-05-22T12:19:41.688Z,25.04
2023-05-22T12:20:41.687Z,25.09
2023-05-22T12:21:41.656Z,25.11
2023-05-22T12:22:41.676Z,25.10
2023-05-22T12:23:41.679Z,25.12
2023-05-22T12:24:41.638Z,25.17
2023-05-22T12:25:41.648Z,25.23
2023-05-22T12:26:41.652Z,25.28
2023-05-22T12:27:41.624Z,25.29
2023-05-22T12:28:41.595Z,25.26
2023-05-22T12:29:41.584Z,25.23
2023-05-22T12:30:41.686Z,25.15
2023-05-22T12:31:41.571Z,25.07
2023-05-22T12:32:41.612Z,24.98
2023-05-22T12:33:41.536Z,24.91
2023-05-22T12:34:41.538Z,24.89
2023-05-22T12:35:41.570Z,24.90
2023-05-22T12:36:41.540Z,24.90
2023-05-22T12:37:41.501Z,24.90
2023-05-22T12:38:41.514Z,24.92
2023-05-22T12:39:41.491Z,24.94
2023-05-22T12:40:41.566Z,24.96
2023-05-22T12:41:41.488Z,25.00
2023-05-22T12:42:41.493Z,25.06
2023-05-22T12:43:41.469Z,25.11
2023-05-22T12:44:41.428Z,25.14
2023-05-22T12:45:41.464Z,25.15
2023-05-22T12:46:41.585Z,25.16
2023-05-22T12:47:41.477Z,25.15
2023-05-22T12:48:41.382Z,25.14
2023-05-22T12:49:41.400Z,25.12
2023-05-22T12:50:41.639Z,25.14
2023-05-22T12:51:41.347Z,25.19
2023-05-22T12:52:41.354Z,25.22